createdAt,value
2022-10-20T00:03:57.235Z,57.32
2022-10-20T00:09:02.810Z,57.53
2022-10-20T00:14:06.192Z,57.73
2022-10-20T00:19:09.693Z,57.58
2022-10-20T00:24:12.609Z,57.65
2022-10-20T00:29:16.064Z,57.89
2022-10-20T00:34:18.995Z,57.76
2022-10-20T00:39:22.111Z,57.91
2022-10-20T00:44:46.678Z,57.62
2022-10-20T00:49:50.550Z,57.96
2022-10-20T00:54:53.579Z,58.22
2022-10-20T00:59:56.670Z,58.32
2022-10-20T01:04:59.857Z,58.38
2022-10-20T01:10:04.929Z,58.63
2022-10-20T01:15:16.468Z,58.36
2022-10-20T01:21:01.218Z,58.80
2022-10-20T01:26:17.701Z,58.88
2022-10-20T01:31:30.284Z,59.05
2022-10-20T01:37:02.676Z,59.03
2022-10-20T01:42:16.102Z,58.94
2022-10-20T01:47:21.179Z,59.00
2022-10-20T01:52:24.905Z,59.21
2022-10-20T01:57:33.517Z,59.40
2022-10-20T02:03:03.059Z,59.47
2022-10-20T02:08:08.646Z,59.57
2022-10-20T02:13:13.109Z,59.68
2022-10-20T02:18:20.930Z,59.86
2022-10-20T02:23:24.196Z,60.07
2022-10-20T02:28:28.556Z,60.10
2022-10-20T02:33:32.317Z,60.10
2022-10-20T02:38:35.200Z,60.13
2022-10-20T02:43:38.505Z,59.98
2022-10-20T02:48:41.487Z,59.95
2022-10-20T02:53:45.266Z,60.16
2022-10-20T02:58:48.981Z,60.20
2022-10-20T03:03:59.846Z,60.50
2022-10-20T03:09:03.730Z,60.37
2022-10-20T03:14:06.892Z,60.29
2022-10-20T03:19:11.749Z,60.36
2022-10-20T03:24:15.268Z,60.59
2022-10-20T03:29:18.182Z,60.38
2022-10-20T03:34:21.240Z,60.40
2022-10-20T03:39:24.241Z,60.41
2022-10-20T03:44:27.195Z,60.35
2022-10-20T03:49:31.645Z,60.63
2022-10-20T03:54:36.338Z,60.31
2022-10-20T03:59:39.274Z,60.23
2022-10-20T04:04:42.168Z,60.47
2022-10-20T04:09:45.083Z,60.52
2022-10-20T04:14:48.960Z,60.33
2022-10-20T04:19:52.027Z,60.40
2022-10-20T04:24:55.260Z,60.58
2022-10-20T04:29:58.180Z,60.61
2022-10-20T04:35:01.406Z,60.96
2022-10-20T04:40:05.620Z,61.02
2022-10-20T04:45:09.540Z,61.03
2022-10-20T04:50:12.506Z,60.89
2022-10-20T04:55:15.474Z,60.91
2022-10-20T05:00:18.584Z,60.95
2022-10-20T05:05:21.556Z,60.97
2022-10-20T05:10:24.679Z,61.05
2022-10-20T05:15:27.797Z,61.15
2022-10-20T05:20:36.807Z,60.99
2022-10-20T05:25:44.310Z,61.32
2022-10-20T05:30:47.421Z,61.40
2022-10-20T05:35:50.297Z,61.22
2022-10-20T05:40:53.162Z,61.28
2022-10-20T05:45:56.091Z,61.55
2022-10-20T05:51:17.384Z,61.40
2022-10-20T05:56:22.148Z,61.70
2022-10-20T06:01:47.907Z,61.91
2022-10-20T06:06:52.598Z,61.90
2022-10-20T06:11:55.637Z,61.89
2022-10-20T06:16:59.077Z,61.90
2022-10-20T06:22:05.513Z,61.99
2022-10-20T06:27:09.815Z,62.27
2022-10-20T06:37:20.773Z,62.06
2022-10-20T06:42:26.308Z,62.05
2022-10-20T06:47:30.866Z,62.24
2022-10-20T06:52:34.150Z,62.35
2022-10-20T06:57:37.248Z,62.31
2022-10-20T07:02:40.118Z,62.35
2022-10-20T07:07:43.109Z,62.22
2022-10-20T07:12:46.358Z,62.13
2022-10-20T07:17:49.262Z,61.78
2022-10-20T07:22:52.323Z,61.75
2022-10-20T07:27:55.203Z,61.63
2022-10-20T07:32:58.102Z,61.71
2022-10-20T07:38:01.555Z,61.64
2022-10-20T07:43:04.756Z,61.59
2022-10-20T07:48:09.971Z,61.62
2022-10-20T07:53:13.084Z,61.46
2022-10-20T07:58:15.984Z,61.24
2022-10-20T08:03:18.813Z,61.02
2022-10-20T08:08:22.086Z,60.88
2022-10-20T08:13:26.873Z,60.76
2022-10-20T08:18:38.646Z,60.76
2022-10-20T08:23:43.583Z,60.53
2022-10-20T08:28:47.473Z,60.47
2022-10-20T08:33:52.893Z,60.21
2022-10-20T08:39:02.104Z,59.92
2022-10-20T08:44:08.500Z,60.02
2022-10-20T08:49:29.391Z,59.50
2022-10-20T08:54:34.474Z,59.24
2022-10-20T08:59:39.647Z,59.09
2022-10-20T09:05:00.316Z,58.80
2022-10-20T09:10:25.302Z,59.07
2022-10-20T09:15:29.313Z,58.38
2022-10-20T09:20:38.591Z,58.61
2022-10-20T09:25:43.424Z,58.60
2022-10-20T09:30:46.722Z,58.59
2022-10-20T09:35:50.915Z,58.26
2022-10-20T09:41:14.231Z,58.12
2022-10-20T09:46:22.218Z,57.66
2022-10-20T09:51:27.732Z,57.31
2022-10-20T09:56:33.586Z,56.84
2022-10-20T10:02:02.147Z,56.39
2022-10-20T10:07:26.302Z,56.13
2022-10-20T10:12:31.429Z,55.93
2022-10-20T10:17:40.020Z,55.95
2022-10-20T10:22:43.809Z,55.52
2022-10-20T10:28:33.469Z,55.10
2022-10-20T10:33:36.474Z,55.26
2022-10-20T10:38:39.595Z,54.66
2022-10-20T10:43:49.078Z,54.08
2022-10-20T10:49:16.547Z,53.98
2022-10-20T10:54:48.885Z,53.82
2022-10-20T10:59:52.825Z,53.44
2022-10-20T11:05:32.794Z,53.38
2022-10-20T11:11:21.091Z,53.05
2022-10-20T11:16:36.442Z,52.94
2022-10-20T11:22:01.255Z,52.13
2022-10-20T11:27:12.039Z,52.07
2022-10-20T11:32:14.996Z,51.78
2022-10-20T11:37:20.701Z,51.73
2022-10-20T11:42:57.345Z,51.65
2022-10-20T11:48:14.095Z,51.30
2022-10-20T11:53:49.287Z,50.98
2022-10-20T11:59:07.705Z,51.10
2022-10-20T12:04:34.107Z,50.98
2022-10-20T12:09:52.463Z,50.69
2022-10-20T12:15:01.660Z,50.56
2022-10-20T12:20:37.711Z,50.69
2022-10-20T12:25:41.776Z,50.41
2022-10-20T12:30:54.671Z,50.19
2022-10-20T12:36:00.858Z,50.19
2022-10-20T12:41:04.615Z,49.89
2022-10-20T12:46:11.903Z,49.70
2022-10-20T12:51:30.436Z,49.38
2022-10-20T12:56:40.603Z,49.47
2022-10-20T13:02:11.311Z,49.05
2022-10-20T13:07:14.301Z,49.05
2022-10-20T13:12:29.144Z,49.11
2022-10-20T13:17:48.637Z,49.00
2022-10-20T13:22:53.957Z,48.86
2022-10-20T13:28:06.380Z,48.90
2022-10-20T13:33:38.844Z,49.24
2022-10-20T13:39:00.268Z,49.27
2022-10-20T13:44:33.253Z,48.94
2022-10-20T13:49:52.547Z,48.85
2022-10-20T13:54:56.662Z,48.67
2022-10-20T14:00:16.394Z,48.61
2022-10-20T14:05:22.124Z,48.47
2022-10-20T14:10:34.160Z,48.56
2022-10-20T14:15:37.705Z,48.40
2022-10-20T14:20:42.015Z,48.71
2022-10-20T14:25:45.882Z,48.71
2022-10-20T14:30:50.829Z,48.80
2022-10-20T14:35:56.657Z,48.75
2022-10-20T14:40:59.989Z,49.13
2022-10-20T14:46:05.144Z,49.06
2022-10-20T14:51:27.406Z,49.09
2022-10-20T14:56:30.907Z,48.86
2022-10-20T15:01:33.997Z,48.88
2022-10-20T15:06:37.271Z,48.86
2022-10-20T15:11:40.336Z,48.87
2022-10-20T15:16:47.743Z,48.68
2022-10-20T15:22:00.616Z,48.88
2022-10-20T15:27:05.087Z,48.67
2022-10-20T15:32:09.141Z,48.64
2022-10-20T15:37:12.245Z,49.29
2022-10-20T15:42:15.166Z,49.19
2022-10-20T15:47:18.134Z,48.66
2022-10-20T15:52:21.538Z,48.70
2022-10-20T15:57:24.424Z,48.78
2022-10-20T16:02:27.738Z,48.82
2022-10-20T16:07:30.853Z,48.90
2022-10-20T16:12:34.444Z,49.11
2022-10-20T16:17:37.883Z,49.35
2022-10-20T16:22:41.190Z,49.43
2022-10-20T16:27:44.249Z,49.55
2022-10-20T16:32:47.232Z,49.44
2022-10-20T16:37:50.212Z,49.75
2022-10-20T16:42:53.277Z,49.94
2022-10-20T16:47:56.120Z,50.00
2022-10-20T16:52:59.349Z,50.20
2022-10-20T16:58:02.398Z,50.19
2022-10-20T17:03:05.439Z,50.47
2022-10-20T17:08:08.629Z,50.48
2022-10-20T17:13:11.574Z,50.70
2022-10-20T17:18:14.500Z,50.83
2022-10-20T17:23:17.468Z,50.76
2022-10-20T17:28:20.500Z,50.73
2022-10-20T17:33:27.827Z,50.60
2022-10-20T17:38:31.686Z,51.05
2022-10-20T17:43:35.022Z,51.04
2022-10-20T17:48:38.569Z,51.01
2022-10-20T17:53:45.532Z,51.39
2022-10-20T17:58:51.500Z,51.37
2022-10-20T18:03:56.551Z,51.71
2022-10-20T18:09:02.483Z,51.72
2022-10-20T18:14:05.729Z,51.66
2022-10-20T18:19:13.145Z,51.89
2022-10-20T18:24:17.767Z,51.75
2022-10-20T18:29:20.982Z,51.88
2022-10-20T18:34:24.210Z,51.90
2022-10-20T18:39:27.386Z,52.19
2022-10-20T18:44:30.681Z,52.16
2022-10-20T18:49:34.340Z,52.25
2022-10-20T18:54:37.301Z,52.59
2022-10-20T18:59:40.511Z,52.53
2022-10-20T19:04:43.585Z,52.54
2022-10-20T19:09:46.940Z,52.68
2022-10-20T19:14:51.646Z,52.69
2022-10-20T19:19:54.769Z,52.79
2022-10-20T19:24:57.933Z,52.81
2022-10-20T19:30:02.226Z,53.12
2022-10-20T19:35:06.045Z,53.12
2022-10-20T19:40:09.406Z,53.12
2022-10-20T19:45:12.467Z,53.16
2022-10-20T19:50:26.040Z,53.31
2022-10-20T19:55:31.767Z,53.40
2022-10-20T20:00:54.411Z,53.42
2022-10-20T20:06:23.121Z,53.42
2022-10-20T20:11:35.362Z,53.73
2022-10-20T20:16:48.215Z,53.86
2022-10-20T20:22:04.328Z,54.14
2022-10-20T20:27:11.468Z,54.18
2022-10-20T20:32:18.199Z,54.28
2022-10-20T20:37:27.175Z,54.35
2022-10-20T20:42:32.204Z,54.43
2022-10-20T20:47:47.521Z,54.82
2022-10-20T20:53:15.456Z,55.06
2022-10-20T20:58:18.563Z,54.89
2022-10-20T21:03:22.050Z,54.75
2022-10-20T21:08:29.237Z,54.82
2022-10-20T21:13:35.940Z,55.11
2022-10-20T21:18:42.265Z,55.52
2022-10-20T21:23:45.918Z,55.00
2022-10-20T21:28:49.376Z,55.25
2022-10-20T21:34:00.833Z,55.31
2022-10-20T21:39:06.545Z,55.41
2022-10-20T21:44:11.571Z,55.52
2022-10-20T21:49:20.182Z,55.73
2022-10-20T21:54:25.809Z,55.90
2022-10-20T21:59:30.696Z,56.04
2022-10-20T22:04:33.971Z,56.09
2022-10-20T22:09:36.969Z,55.96
2022-10-20T22:14:42.533Z,56.23
2022-10-20T22:19:55.406Z,56.38
2022-10-20T22:25:01.416Z,56.38
2022-10-20T22:30:08.528Z,56.45
2022-10-20T22:35:11.427Z,56.55
2022-10-20T22:40:14.452Z,56.60
2022-10-20T22:45:17.481Z,56.47
2022-10-20T22:50:20.590Z,56.72
2022-10-20T22:55:23.539Z,56.81
2022-10-20T23:00:26.427Z,56.99
2022-10-20T23:05:29.328Z,56.98
2022-10-20T23:10:32.797Z,56.82
2022-10-20T23:15:35.798Z,57.08
2022-10-20T23:20:40.117Z,57.19
2022-10-20T23:25:43.597Z,57.11
2022-10-20T23:30:46.833Z,57.33
2022-10-20T23:35:49.777Z,57.48
2022-10-20T23:40:52.683Z,57.52
2022-10-20T23:45:55.995Z,57.43
2022-10-20T23:50:58.977Z,57.60
2022-10-20T23:56:02.119Z,57.91
